Aquone, NC

2:59 AM EDT on May 30, 2015 (GMT -0400)
APRSWXNET | | Change Station
CLOSE
Current Station
Personal Weather Station
Location: Topton, NC
Elevation: 2959 ft
Nearby Weather Stations

Elev 2959 ft 35.26 °N, 83.69 °W | Updated 41 minutes ago

Clear
Clear
62 °F
Feels Like 62 °F
N
0
Wind Variable Wind from South
Gusts 0.0 mph

Today
High -- | Low -- °F
--% Chance of Precip.
Yesterday
High -- | Low -- °F
Precip. -- in
6:22 AM 8:42 PM
Waxing Gibbous, 88% visible
Pressure 30.20 in
Visibility 7.0 miles
Clouds Clear
Dew Point 59 °F
Humidity 91%
Rainfall in
Snow Depth Not available.
UV 0 out of 12
Pollen 6.10 out of 12
Air Quality Not available.
Flu Activity No Activity
METAR KRHP 300635Z AUTO 00000KT 7SM CLR 15/15 A3020 RMK AO2 T01470147

More Conditions Fewer Conditions

Pressure 30.20 in
Visibility 7.0 miles
Clouds Clear
Dew Point 59 °F
Humidity 91%
Rainfall in
Snow Depth Not available.
UV 0 out of 12
Pollen 6.10 out of 12
Air Quality Not available.
Flu Activity No Activity
METAR KRHP 300635Z AUTO 00000KT 7SM CLR 15/15 A3020 RMK AO2 T01470147

More Conditions Fewer Conditions

10-Day Weather Forecast

Almanac

Astronomy

May. 30, 2015 Rise Set
Actual Time
Civil Twilight
Nautical Twilight
Astronomical Twilight
Moon
Length of Visible Light
Length of Day
Tomorrow will be .
, % of the Moon is Illuminated

Today's Extremes

State Highs State Lows

Community

WunderPhotos

Upload Photos

1,825,472 photos uploaded!

WunderBlogs® & News

Nearby

Air Quality

  Air Quality AQ Index Pollutant
Not available.

Snow Depth

Station Depth Elevation

Earthquake Activity

City Distance Mag. Time & Date
Minimum magnitude displayed is 2.5.

Coastal Water Temperatures

Place Temperature

Stations

Nearby Weather Stations

Station Location Temp. Windchill Dew Point Humidity Wind Precip. Elev Updated Type